Aérodrome :
LOGIN :

S'inscrire | Disclaimer

   EN    FR    IT 

 










Légende :    VFR   VFR Marginal   IFR   IFR Intensif   IFR Très Intensif
Visi : 
Plafond : 
>= 8 km
>= 3000ft
5 à 8 km
1000 à 3000 ft
1500m à 5 km
500 à 1000 ft
800 à 1500m
200 à 500 ft
< 800m
< 200 ft
Symboles :   Orages  Brouillard  Fortes neiges  Fortes précipitations  Vent > 20 kt
SIGMETs :   Divers  Orages  Givrage  Turbulence  Onde Orograph.  Cendres Volcan.






- Altitude de l'aérodrome : 90 ft
- Code IATA : NTE


LFRS - Nantes

DERNIER METAR :
  • 060530Z AUTO 18006KT 5000 BR FEW004 OVC022 02/02 Q1021

METARs EXPIRÉS :
  • 060500Z AUTO 17006KT 5000 BR FEW003 OVC020 01/01 Q1021
  • 060430Z AUTO 18005KT 4000 BR BKN002 OVC021 01/01 Q1021
  • 060400Z AUTO 18004KT 1800 BR VV/// 01/01 Q1021
  • 060330Z AUTO 16006KT 1400 1000 R03/1700U R21/2000U BR VV/// 01/01 Q1021
  • 060300Z AUTO 15005KT 0800 0750 R03/0900D R21/1600D FG VV/// 01/01 Q1021

TAF TAF LFRS
Valide du 05 à 18h jusqu'au 07 à 00h UTC


051700Z 0518/0624 VRB03KT 3500 BR OVC004
TEMPO 0518/0607 0400 FG VV///
BECMG 0607/0609 18010KT 8000 -RA
TEMPO 0607/0624 BKN011
ATIS : +33 2 40 05 12 74



MET'MAP, la Météo Aéronautique d'un coup d'oeil ! - Copyright ORBIFLY Décembre 2007 - Disclaimer

ORBIFLY MET'MAP TEAM :

Programmation & Développement : Alexandra Zaïnal
Sur une idée originale de : Baudouin d'Aumeries
Assistance à la programmation : Marc-Olivier Méhu
Soutien technique & logistique : Manuel Goepfert

Contact : metmap@orbifly.com




SOURCES & CREDITS :

   NOAA